Pierz, Minnesota
Current Conditions -  °F | °C
As of 10:17 AM on Wednesday 22 Oct 2014 (Local Time) from KLXL Reporting Station
Overcast Overcast  
Wind Chill: 39°   Ceiling: 4300
Heat Index: 45°   Visibility: 10mi
Dew Point: 37°   Wind: 12mph
Humidity: 76%   Direction: 140°SE
Pressure: 30.09"   Gusts: 17mph
Location:  45.98°N, 94.1°W
Report Text: KLXL 221517Z AUTO 14010G15KT 10SM OVC043 07/03 A3009 RMK AO2
Loading
Personal Weather Stations






























Interactive Weather Map
Tropical Storm Tracking
New forecast layout! Learn more

10-Day Weather Forecast

Advertisements
Track Severe Weather on mobile